Terminal Aerodrome Forecast
Issued by NWS

Home | Current Version | Previous Version | Text Only | Print | Product List | Glossary Off
Versions: 1 2 3 4 5 6 7 8 9 10 11 12 13 14 15 16 17 18 19 20 21 22 23

000
FTUS43 KMPX 311756 CCA
TAFAXN
TAF COR
KAXN 311756Z 3118/0118 04013KT P6SM FEW018
     FM311900 05013KT P6SM BKN200
     FM010300 03012KT P6SM OVC060=

USA.gov is the U.S. government's official web portal to all federal, state and local government web resources and services.